createdAt,value
2018-11-12T00:00:02.728Z,0
2018-11-12T00:05:02.777Z,0
2018-11-12T00:10:02.379Z,0
2018-11-12T00:15:02.864Z,0
2018-11-12T00:20:03.412Z,0
2018-11-12T00:25:02.765Z,0
2018-11-12T00:30:03.128Z,0
2018-11-12T00:35:02.629Z,0
2018-11-12T00:40:03.201Z,0
2018-11-12T00:45:02.564Z,0
2018-11-12T00:50:02.970Z,0
2018-11-12T00:55:02.382Z,0
2018-11-12T01:00:02.881Z,0
2018-11-12T01:05:03.193Z,0
2018-11-12T01:10:02.644Z,0
2018-11-12T01:15:03.127Z,0
2018-11-12T01:20:02.735Z,0
2018-11-12T01:25:03.141Z,0
2018-11-12T01:30:02.534Z,0
2018-11-12T01:35:02.983Z,0
2018-11-12T01:40:02.415Z,0
2018-11-12T01:45:02.856Z,0
2018-11-12T01:50:03.353Z,0
2018-11-12T01:55:02.757Z,0
2018-11-12T02:00:03.141Z,0
2018-11-12T02:05:02.866Z,0
2018-11-12T02:10:03.232Z,0
2018-11-12T02:15:02.636Z,0
2018-11-12T02:20:03.030Z,0
2018-11-12T02:25:02.451Z,0
2018-11-12T02:30:02.879Z,0
2018-11-12T02:35:03.343Z,0
2018-11-12T02:40:02.849Z,0
2018-11-12T02:45:03.267Z,0
2018-11-12T02:50:02.639Z,0
2018-11-12T02:55:03.175Z,0
2018-11-12T03:00:02.622Z,0
2018-11-12T03:05:03.085Z,0
2018-11-12T03:10:02.507Z,0
2018-11-12T03:15:02.991Z,0
2018-11-12T03:20:02.529Z,0
2018-11-12T03:25:02.832Z,0
2018-11-12T03:30:03.251Z,0
2018-11-12T03:35:02.695Z,0
2018-11-12T03:40:03.254Z,0
2018-11-12T03:45:02.653Z,0
2018-11-12T03:50:03.101Z,0
2018-11-12T03:55:02.569Z,0
2018-11-12T04:00:03.519Z,0
2018-11-12T04:05:03.232Z,0
2018-11-12T04:10:02.846Z,0
2018-11-12T04:15:03.408Z,0
2018-11-12T04:20:02.852Z,0
2018-11-12T04:25:02.393Z,0
2018-11-12T04:30:02.820Z,0
2018-11-12T04:35:03.418Z,0
2018-11-12T04:40:03.002Z,0
2018-11-12T04:45:02.414Z,0
2018-11-12T04:50:02.815Z,0
2018-11-12T04:55:03.290Z,0
2018-11-12T05:00:03.196Z,0
2018-11-12T05:05:02.706Z,0
2018-11-12T05:10:03.174Z,0
2018-11-12T05:15:02.490Z,0
2018-11-12T05:20:03.012Z,0
2018-11-12T05:25:02.461Z,0
2018-11-12T05:30:03.300Z,0
2018-11-12T05:35:02.801Z,0
2018-11-12T05:40:03.329Z,0
2018-11-12T05:45:02.850Z,0
2018-11-12T05:50:03.196Z,0
2018-11-12T05:55:02.666Z,0
2018-11-12T06:00:03.096Z,0
2018-11-12T06:05:02.673Z,0
2018-11-12T06:10:02.989Z,0
2018-11-12T06:15:03.355Z,1
2018-11-12T06:20:02.884Z,2
2018-11-12T06:25:03.400Z,5
2018-11-12T06:30:02.854Z,7
2018-11-12T06:35:03.397Z,13
2018-11-12T06:40:02.859Z,17
2018-11-12T06:45:03.262Z,21
2018-11-12T06:50:02.692Z,34
2018-11-12T06:55:03.050Z,51
2018-11-12T07:00:02.588Z,60
2018-11-12T07:05:03.090Z,84
2018-11-12T07:10:02.586Z,126
2018-11-12T07:15:03.036Z,260
2018-11-12T07:20:02.489Z,194
2018-11-12T07:25:03.159Z,237
2018-11-12T07:30:02.774Z,278
2018-11-12T07:35:03.207Z,313
2018-11-12T07:40:02.768Z,272
2018-11-12T07:45:03.152Z,325
2018-11-12T07:50:02.518Z,399
2018-11-12T07:55:02.993Z,413
2018-11-12T08:00:02.453Z,480
2018-11-12T08:05:03.015Z,536
2018-11-12T08:10:02.463Z,651
2018-11-12T08:15:02.823Z,633
2018-11-12T08:20:03.189Z,540
2018-11-12T08:25:02.632Z,574
2018-11-12T08:30:03.576Z,293
2018-11-12T08:35:03.296Z,401
2018-11-12T08:40:03.131Z,343
2018-11-12T08:45:02.448Z,330
2018-11-12T08:50:03.152Z,411
2018-11-12T08:55:03.488Z,501
2018-11-12T09:00:02.646Z,377
2018-11-12T09:05:03.163Z,397
2018-11-12T09:10:02.887Z,503
2018-11-12T09:15:03.078Z,306
2018-11-12T09:20:02.554Z,546
2018-11-12T09:25:02.985Z,739
2018-11-12T09:30:02.425Z,427
2018-11-12T09:35:02.985Z,524
2018-11-12T09:40:02.485Z,415
2018-11-12T09:45:02.977Z,501
2018-11-12T09:50:02.462Z,370
2018-11-12T09:55:02.893Z,450
2018-11-12T10:00:03.628Z,557
2018-11-12T10:05:06.685Z,680
2018-11-12T10:10:10.081Z,634
2018-11-12T10:15:09.752Z,437
2018-11-12T10:20:02.598Z,395
2018-11-12T10:25:03.402Z,475
2018-11-12T10:30:03.095Z,710
2018-11-12T10:35:02.500Z,945
2018-11-12T10:40:02.939Z,1000
2018-11-12T10:45:02.391Z,814
2018-11-12T10:50:02.914Z,917
2018-11-12T10:55:06.142Z,1000
2018-11-12T11:00:02.403Z,1000
2018-11-12T11:05:02.984Z,1000
2018-11-12T11:10:02.457Z,1000
2018-11-12T11:15:03.037Z,1000
2018-11-12T11:20:02.551Z,1000
2018-11-12T11:25:02.974Z,1000
2018-11-12T11:30:02.642Z,1000
2018-11-12T11:35:03.131Z,1000
2018-11-12T11:40:02.647Z,1000
2018-11-12T11:45:03.219Z,734
2018-11-12T11:50:02.855Z,1000
2018-11-12T11:55:02.703Z,1000
2018-11-12T12:00:03.149Z,1000
2018-11-12T12:05:02.674Z,1000
2018-11-12T12:10:03.119Z,1000
2018-11-12T12:15:02.549Z,1000
2018-11-12T12:20:02.909Z,641
2018-11-12T12:25:03.508Z,739
2018-11-12T12:30:02.498Z,721
2018-11-12T12:35:02.940Z,972
2018-11-12T12:40:02.418Z,1000
2018-11-12T12:45:03.440Z,1000
2018-11-12T12:50:02.808Z,819
2018-11-12T12:55:03.278Z,741
2018-11-12T13:00:03.034Z,896
2018-11-12T13:05:02.667Z,1000
2018-11-12T13:10:02.948Z,1000
2018-11-12T13:15:02.687Z,2000
2018-11-12T13:20:02.726Z,1000
2018-11-12T13:25:03.224Z,2000
2018-11-12T13:30:03.096Z,2000
2018-11-12T13:35:02.658Z,2000
2018-11-12T13:40:03.194Z,1000
2018-11-12T13:45:02.639Z,2000
2018-11-12T13:50:03.191Z,1000
2018-11-12T13:55:02.615Z,1000
2018-11-12T14:00:03.094Z,1000
2018-11-12T14:05:02.522Z,1000
2018-11-12T14:10:03.129Z,1000
2018-11-12T14:15:02.555Z,1000
2018-11-12T14:20:03.209Z,1000
2018-11-12T14:25:02.915Z,1000
2018-11-12T14:30:02.464Z,1000
2018-11-12T14:35:02.955Z,1000
2018-11-12T14:40:02.364Z,2000
2018-11-12T14:45:02.981Z,2000
2018-11-12T14:50:02.815Z,1000
2018-11-12T14:55:03.365Z,1000
2018-11-12T15:00:03.270Z,1000
2018-11-12T15:05:02.823Z,948
2018-11-12T15:10:02.405Z,800
2018-11-12T15:15:03.481Z,536
2018-11-12T15:20:03.626Z,407
2018-11-12T15:25:03.142Z,400
2018-11-12T15:30:02.573Z,269
2018-11-12T15:35:03.278Z,183
2018-11-12T15:40:02.827Z,60
2018-11-12T15:45:02.525Z,49
2018-11-12T15:50:03.017Z,42
2018-11-12T15:55:02.455Z,25
2018-11-12T16:00:02.880Z,19
2018-11-12T16:05:03.608Z,15
2018-11-12T16:10:03.134Z,6
2018-11-12T16:15:02.584Z,3
2018-11-12T16:20:03.233Z,2
2018-11-12T16:25:02.680Z,1
2018-11-12T16:30:03.196Z,0
2018-11-12T16:35:02.520Z,0
2018-11-12T16:40:03.010Z,0
2018-11-12T16:45:02.733Z,0
2018-11-12T16:50:03.202Z,0
2018-11-12T16:55:02.713Z,0
2018-11-12T17:00:03.144Z,0
2018-11-12T17:05:02.676Z,0
2018-11-12T17:10:03.234Z,0
2018-11-12T17:15:02.689Z,0
2018-11-12T17:20:03.246Z,0
2018-11-12T17:25:02.989Z,0
2018-11-12T17:30:03.153Z,0
2018-11-12T17:35:02.536Z,0
2018-11-12T17:40:03.200Z,0
2018-11-12T17:45:02.717Z,0
2018-11-12T17:50:03.196Z,0
2018-11-12T17:55:02.678Z,0
2018-11-12T18:00:03.236Z,0
2018-11-12T18:05:02.650Z,0
2018-11-12T18:10:03.197Z,0
2018-11-12T18:15:02.606Z,0
2018-11-12T18:20:03.147Z,0
2018-11-12T18:25:02.526Z,0
2018-11-12T18:30:03.305Z,0
2018-11-12T18:35:03.416Z,0
2018-11-12T18:40:02.922Z,0
2018-11-12T18:45:02.360Z,0
2018-11-12T18:50:02.804Z,0
2018-11-12T18:55:03.222Z,0
2018-11-12T19:00:02.633Z,0
2018-11-12T19:05:03.171Z,0
2018-11-12T19:10:02.909Z,0
2018-11-12T19:15:03.377Z,0
2018-11-12T19:20:02.846Z,0
2018-11-12T19:25:03.299Z,0
2018-11-12T19:30:02.803Z,0
2018-11-12T19:35:03.244Z,0
2018-11-12T19:40:02.724Z,0
2018-11-12T19:45:03.252Z,0
2018-11-12T19:50:02.691Z,0
2018-11-12T19:55:03.213Z,0
2018-11-12T20:00:02.918Z,0
2018-11-12T20:05:02.454Z,0
2018-11-12T20:10:02.908Z,0
2018-11-12T20:15:03.330Z,0
2018-11-12T20:20:02.774Z,0
2018-11-12T20:25:03.373Z,0
2018-11-12T20:30:03.200Z,0
2018-11-12T20:35:02.596Z,0
2018-11-12T20:40:03.205Z,0
2018-11-12T20:45:02.899Z,0
2018-11-12T20:50:02.678Z,0
2018-11-12T20:55:03.247Z,0
2018-11-12T21:00:02.907Z,0
2018-11-12T21:05:02.430Z,0
2018-11-12T21:10:02.896Z,0
2018-11-12T21:15:03.299Z,0
2018-11-12T21:20:02.863Z,0
2018-11-12T21:25:03.427Z,0
2018-11-12T21:30:02.861Z,0
2018-11-12T21:35:03.336Z,0
2018-11-12T21:40:02.805Z,0
2018-11-12T21:45:03.331Z,0
2018-11-12T21:50:03.037Z,0
2018-11-12T21:55:02.400Z,0
2018-11-12T22:00:02.976Z,0
2018-11-12T22:05:02.387Z,0
2018-11-12T22:10:02.872Z,0
2018-11-12T22:15:03.364Z,0
2018-11-12T22:20:03.046Z,0
2018-11-12T22:25:03.281Z,0
2018-11-12T22:30:02.763Z,0
2018-11-12T22:35:03.423Z,0
2018-11-12T22:40:02.897Z,0
2018-11-12T22:45:02.720Z,0
2018-11-12T22:50:03.176Z,0
2018-11-12T22:55:02.722Z,0
2018-11-12T23:00:03.337Z,0
2018-11-12T23:05:02.832Z,0
2018-11-12T23:10:02.435Z,0
2018-11-12T23:15:03.108Z,0
2018-11-12T23:20:02.454Z,0
2018-11-12T23:25:03.042Z,0
2018-11-12T23:30:02.671Z,0
2018-11-12T23:35:03.106Z,0
2018-11-12T23:40:02.639Z,0
2018-11-12T23:45:03.140Z,0
2018-11-12T23:50:02.641Z,0
2018-11-12T23:55:03.372Z,0
